sensor_id;sensor_type;location;lat;lon;timestamp;P1;durP1;ratioP1;P2;durP2;ratioP2
12267;SDS011;6196;48.398;11.736;2022-08-25T00:01:54;7.00;;;6.30;;
12267;SDS011;6196;48.398;11.736;2022-08-25T00:04:27;9.23;;;6.50;;
12267;SDS011;6196;48.398;11.736;2022-08-25T00:06:55;8.07;;;6.37;;
12267;SDS011;6196;48.398;11.736;2022-08-25T00:09:28;8.83;;;6.33;;
12267;SDS011;6196;48.398;11.736;2022-08-25T00:11:56;7.47;;;6.77;;
12267;SDS011;6196;48.398;11.736;2022-08-25T00:14:25;7.10;;;6.23;;
12267;SDS011;6196;48.398;11.736;2022-08-25T00:16:57;7.60;;;6.80;;
12267;SDS011;6196;48.398;11.736;2022-08-25T00:19:26;7.63;;;6.30;;
12267;SDS011;6196;48.398;11.736;2022-08-25T00:21:57;7.07;;;6.37;;
12267;SDS011;6196;48.398;11.736;2022-08-25T00:24:25;7.40;;;6.70;;
12267;SDS011;6196;48.398;11.736;2022-08-25T00:26:54;7.40;;;6.70;;
12267;SDS011;6196;48.398;11.736;2022-08-25T00:29:23;7.20;;;6.50;;
12267;SDS011;6196;48.398;11.736;2022-08-25T00:31:53;8.60;;;6.73;;
12267;SDS011;6196;48.398;11.736;2022-08-25T00:34:22;7.07;;;6.37;;
12267;SDS011;6196;48.398;11.736;2022-08-25T00:36:53;7.03;;;6.33;;
12267;SDS011;6196;48.398;11.736;2022-08-25T00:39:21;7.20;;;6.10;;
12267;SDS011;6196;48.398;11.736;2022-08-25T00:41:50;8.23;;;6.60;;
12267;SDS011;6196;48.398;11.736;2022-08-25T00:44:21;9.20;;;6.57;;
12267;SDS011;6196;48.398;11.736;2022-08-25T00:46:53;6.73;;;6.13;;
12267;SDS011;6196;48.398;11.736;2022-08-25T00:52:07;6.63;;;6.03;;
12267;SDS011;6196;48.398;11.736;2022-08-25T00:54:46;7.70;;;6.43;;
12267;SDS011;6196;48.398;11.736;2022-08-25T00:57:25;7.30;;;6.57;;
12267;SDS011;6196;48.398;11.736;2022-08-25T01:00:00;8.00;;;7.20;;
12267;SDS011;6196;48.398;11.736;2022-08-25T01:02:37;11.00;;;6.83;;
12267;SDS011;6196;48.398;11.736;2022-08-25T01:05:05;9.13;;;7.13;;
12267;SDS011;6196;48.398;11.736;2022-08-25T01:07:32;8.47;;;7.60;;
12267;SDS011;6196;48.398;11.736;2022-08-25T01:10:00;7.90;;;6.90;;
12267;SDS011;6196;48.398;11.736;2022-08-25T01:12:27;7.67;;;6.87;;
12267;SDS011;6196;48.398;11.736;2022-08-25T01:14:54;7.77;;;6.87;;
12267;SDS011;6196;48.398;11.736;2022-08-25T01:17:21;9.20;;;6.90;;
12267;SDS011;6196;48.398;11.736;2022-08-25T01:19:52;8.90;;;7.20;;
12267;SDS011;6196;48.398;11.736;2022-08-25T01:22:20;8.13;;;7.30;;
12267;SDS011;6196;48.398;11.736;2022-08-25T01:24:56;8.40;;;7.00;;
12267;SDS011;6196;48.398;11.736;2022-08-25T01:27:32;9.60;;;7.37;;
12267;SDS011;6196;48.398;11.736;2022-08-25T01:29:59;8.17;;;7.37;;
12267;SDS011;6196;48.398;11.736;2022-08-25T01:32:26;8.50;;;7.00;;
12267;SDS011;6196;48.398;11.736;2022-08-25T01:34:53;8.73;;;7.20;;
12267;SDS011;6196;48.398;11.736;2022-08-25T01:37:20;7.17;;;6.47;;
12267;SDS011;6196;48.398;11.736;2022-08-25T01:39:47;9.47;;;7.80;;
12267;SDS011;6196;48.398;11.736;2022-08-25T01:42:18;8.90;;;7.63;;
12267;SDS011;6196;48.398;11.736;2022-08-25T01:45:14;7.97;;;7.27;;
12267;SDS011;6196;48.398;11.736;2022-08-25T01:47:41;10.23;;;8.03;;
12267;SDS011;6196;48.398;11.736;2022-08-25T01:50:10;8.70;;;7.90;;
12267;SDS011;6196;48.398;11.736;2022-08-25T01:55:33;8.80;;;7.70;;
12267;SDS011;6196;48.398;11.736;2022-08-25T02:00:53;9.00;;;8.17;;
12267;SDS011;6196;48.398;11.736;2022-08-25T02:03:23;9.00;;;8.20;;
12267;SDS011;6196;48.398;11.736;2022-08-25T02:05:51;9.00;;;7.30;;
12267;SDS011;6196;48.398;11.736;2022-08-25T02:08:20;10.27;;;8.80;;
12267;SDS011;6196;48.398;11.736;2022-08-25T02:10:48;8.60;;;7.70;;
12267;SDS011;6196;48.398;11.736;2022-08-25T02:13:17;9.63;;;8.07;;
12267;SDS011;6196;48.398;11.736;2022-08-25T02:15:53;8.80;;;7.90;;
12267;SDS011;6196;48.398;11.736;2022-08-25T02:18:22;8.97;;;8.07;;
12267;SDS011;6196;48.398;11.736;2022-08-25T02:20:50;8.90;;;8.00;;
12267;SDS011;6196;48.398;11.736;2022-08-25T02:23:17;9.87;;;8.23;;
12267;SDS011;6196;48.398;11.736;2022-08-25T02:25:44;9.13;;;8.23;;
12267;SDS011;6196;48.398;11.736;2022-08-25T02:28:11;10.80;;;8.80;;
12267;SDS011;6196;48.398;11.736;2022-08-25T02:30:39;8.63;;;7.77;;
12267;SDS011;6196;48.398;11.736;2022-08-25T02:33:08;9.10;;;7.87;;
12267;SDS011;6196;48.398;11.736;2022-08-25T02:35:35;9.27;;;8.27;;
12267;SDS011;6196;48.398;11.736;2022-08-25T02:38:03;8.97;;;8.03;;
12267;SDS011;6196;48.398;11.736;2022-08-25T02:40:30;9.93;;;8.17;;
12267;SDS011;6196;48.398;11.736;2022-08-25T02:42:58;9.00;;;8.07;;
12267;SDS011;6196;48.398;11.736;2022-08-25T02:45:24;8.70;;;7.77;;
12267;SDS011;6196;48.398;11.736;2022-08-25T02:47:51;9.73;;;8.50;;
12267;SDS011;6196;48.398;11.736;2022-08-25T02:50:19;10.77;;;9.10;;
12267;SDS011;6196;48.398;11.736;2022-08-25T02:52:46;9.80;;;8.90;;
12267;SDS011;6196;48.398;11.736;2022-08-25T02:55:15;9.20;;;8.30;;
12267;SDS011;6196;48.398;11.736;2022-08-25T02:57:43;9.60;;;8.60;;
12267;SDS011;6196;48.398;11.736;2022-08-25T03:00:11;11.50;;;8.70;;
12267;SDS011;6196;48.398;11.736;2022-08-25T03:02:40;12.30;;;9.00;;
12267;SDS011;6196;48.398;11.736;2022-08-25T03:05:08;10.53;;;8.83;;
12267;SDS011;6196;48.398;11.736;2022-08-25T03:07:37;10.20;;;9.00;;
12267;SDS011;6196;48.398;11.736;2022-08-25T03:10:09;11.37;;;9.20;;
12267;SDS011;6196;48.398;11.736;2022-08-25T03:12:39;12.07;;;8.63;;
12267;SDS011;6196;48.398;11.736;2022-08-25T03:15:08;12.27;;;9.10;;
12267;SDS011;6196;48.398;11.736;2022-08-25T03:17:38;11.40;;;9.17;;
12267;SDS011;6196;48.398;11.736;2022-08-25T03:20:06;12.60;;;9.77;;
12267;SDS011;6196;48.398;11.736;2022-08-25T03:22:33;9.50;;;8.60;;
12267;SDS011;6196;48.398;11.736;2022-08-25T03:25:02;10.73;;;9.10;;
12267;SDS011;6196;48.398;11.736;2022-08-25T03:27:49;11.20;;;9.17;;
12267;SDS011;6196;48.398;11.736;2022-08-25T03:30:17;9.87;;;8.87;;
12267;SDS011;6196;48.398;11.736;2022-08-25T03:32:44;10.10;;;9.07;;
12267;SDS011;6196;48.398;11.736;2022-08-25T03:35:11;10.80;;;9.43;;
12267;SDS011;6196;48.398;11.736;2022-08-25T03:37:38;10.63;;;9.53;;
12267;SDS011;6196;48.398;11.736;2022-08-25T03:40:07;14.27;;;9.83;;
12267;SDS011;6196;48.398;11.736;2022-08-25T03:42:45;9.93;;;8.93;;
12267;SDS011;6196;48.398;11.736;2022-08-25T03:45:12;9.70;;;8.70;;
12267;SDS011;6196;48.398;11.736;2022-08-25T03:47:41;10.10;;;8.57;;
12267;SDS011;6196;48.398;11.736;2022-08-25T03:50:14;9.80;;;8.80;;
12267;SDS011;6196;48.398;11.736;2022-08-25T03:52:42;11.10;;;9.90;;
12267;SDS011;6196;48.398;11.736;2022-08-25T03:55:12;11.20;;;9.63;;
12267;SDS011;6196;48.398;11.736;2022-08-25T03:57:39;11.17;;;10.03;;
12267;SDS011;6196;48.398;11.736;2022-08-25T04:00:07;10.77;;;9.67;;
12267;SDS011;6196;48.398;11.736;2022-08-25T04:02:37;10.07;;;9.07;;
12267;SDS011;6196;48.398;11.736;2022-08-25T04:05:06;11.77;;;10.10;;
12267;SDS011;6196;48.398;11.736;2022-08-25T04:07:34;11.07;;;9.87;;
12267;SDS011;6196;48.398;11.736;2022-08-25T04:10:01;10.80;;;9.70;;
12267;SDS011;6196;48.398;11.736;2022-08-25T04:12:30;11.27;;;10.10;;
12267;SDS011;6196;48.398;11.736;2022-08-25T04:14:57;12.60;;;10.40;;
12267;SDS011;6196;48.398;11.736;2022-08-25T04:17:24;10.93;;;9.83;;
12267;SDS011;6196;48.398;11.736;2022-08-25T04:19:51;11.13;;;10.00;;
12267;SDS011;6196;48.398;11.736;2022-08-25T04:22:18;11.83;;;10.60;;
12267;SDS011;6196;48.398;11.736;2022-08-25T04:24:45;11.87;;;10.47;;
12267;SDS011;6196;48.398;11.736;2022-08-25T04:27:11;11.23;;;10.10;;
12267;SDS011;6196;48.398;11.736;2022-08-25T04:29:39;12.77;;;9.83;;
12267;SDS011;6196;48.398;11.736;2022-08-25T04:32:06;11.57;;;10.37;;
12267;SDS011;6196;48.398;11.736;2022-08-25T04:34:33;11.20;;;10.00;;
12267;SDS011;6196;48.398;11.736;2022-08-25T04:37:01;10.80;;;9.57;;
12267;SDS011;6196;48.398;11.736;2022-08-25T04:39:31;12.10;;;10.17;;
12267;SDS011;6196;48.398;11.736;2022-08-25T04:41:58;10.77;;;9.43;;
12267;SDS011;6196;48.398;11.736;2022-08-25T04:44:26;11.10;;;10.00;;
12267;SDS011;6196;48.398;11.736;2022-08-25T04:46:55;11.03;;;9.93;;
12267;SDS011;6196;48.398;11.736;2022-08-25T04:49:22;11.30;;;9.67;;
12267;SDS011;6196;48.398;11.736;2022-08-25T04:51:49;11.57;;;10.37;;
12267;SDS011;6196;48.398;11.736;2022-08-25T04:54:16;13.93;;;10.13;;
12267;SDS011;6196;48.398;11.736;2022-08-25T04:56:47;11.30;;;10.20;;
12267;SDS011;6196;48.398;11.736;2022-08-25T04:59:19;12.07;;;10.50;;
12267;SDS011;6196;48.398;11.736;2022-08-25T05:01:46;13.33;;;10.47;;
12267;SDS011;6196;48.398;11.736;2022-08-25T05:04:18;11.57;;;10.37;;
12267;SDS011;6196;48.398;11.736;2022-08-25T05:06:54;11.13;;;10.03;;
12267;SDS011;6196;48.398;11.736;2022-08-25T05:09:21;11.03;;;9.83;;
12267;SDS011;6196;48.398;11.736;2022-08-25T05:11:50;11.00;;;9.80;;
12267;SDS011;6196;48.398;11.736;2022-08-25T05:14:18;11.07;;;10.00;;
12267;SDS011;6196;48.398;11.736;2022-08-25T05:16:50;15.40;;;10.90;;
12267;SDS011;6196;48.398;11.736;2022-08-25T05:19:18;15.13;;;11.43;;
12267;SDS011;6196;48.398;11.736;2022-08-25T05:21:45;11.93;;;10.43;;
12267;SDS011;6196;48.398;11.736;2022-08-25T05:24:12;11.67;;;10.10;;
12267;SDS011;6196;48.398;11.736;2022-08-25T05:26:39;11.23;;;9.97;;
12267;SDS011;6196;48.398;11.736;2022-08-25T05:29:06;11.60;;;10.40;;
12267;SDS011;6196;48.398;11.736;2022-08-25T05:31:33;11.47;;;10.33;;
12267;SDS011;6196;48.398;11.736;2022-08-25T05:34:08;11.70;;;9.93;;
12267;SDS011;6196;48.398;11.736;2022-08-25T05:36:35;12.47;;;11.17;;
12267;SDS011;6196;48.398;11.736;2022-08-25T05:39:03;13.13;;;11.17;;
12267;SDS011;6196;48.398;11.736;2022-08-25T05:41:30;13.47;;;11.33;;
12267;SDS011;6196;48.398;11.736;2022-08-25T05:43:58;13.97;;;11.97;;
12267;SDS011;6196;48.398;11.736;2022-08-25T05:46:25;13.93;;;12.37;;
12267;SDS011;6196;48.398;11.736;2022-08-25T05:48:56;14.37;;;11.63;;
12267;SDS011;6196;48.398;11.736;2022-08-25T05:51:24;12.20;;;10.90;;
12267;SDS011;6196;48.398;11.736;2022-08-25T05:53:51;13.07;;;11.00;;
12267;SDS011;6196;48.398;11.736;2022-08-25T05:56:18;13.27;;;11.47;;
12267;SDS011;6196;48.398;11.736;2022-08-25T05:58:46;12.83;;;10.87;;
12267;SDS011;6196;48.398;11.736;2022-08-25T06:01:27;12.13;;;10.83;;
12267;SDS011;6196;48.398;11.736;2022-08-25T06:04:27;12.87;;;11.07;;
12267;SDS011;6196;48.398;11.736;2022-08-25T06:06:54;12.80;;;11.07;;
12267;SDS011;6196;48.398;11.736;2022-08-25T06:09:21;13.77;;;10.37;;
12267;SDS011;6196;48.398;11.736;2022-08-25T06:11:48;11.53;;;9.90;;
12267;SDS011;6196;48.398;11.736;2022-08-25T06:14:20;13.03;;;10.03;;
12267;SDS011;6196;48.398;11.736;2022-08-25T06:16:47;11.27;;;10.13;;
12267;SDS011;6196;48.398;11.736;2022-08-25T06:19:16;13.77;;;11.60;;
12267;SDS011;6196;48.398;11.736;2022-08-25T06:21:43;13.87;;;11.30;;
12267;SDS011;6196;48.398;11.736;2022-08-25T06:24:10;11.40;;;10.03;;
12267;SDS011;6196;48.398;11.736;2022-08-25T06:26:40;12.27;;;10.57;;
12267;SDS011;6196;48.398;11.736;2022-08-25T06:29:09;10.83;;;9.70;;
12267;SDS011;6196;48.398;11.736;2022-08-25T06:31:35;13.40;;;10.80;;
12267;SDS011;6196;48.398;11.736;2022-08-25T06:34:02;11.50;;;10.33;;
12267;SDS011;6196;48.398;11.736;2022-08-25T06:36:29;11.93;;;10.63;;
12267;SDS011;6196;48.398;11.736;2022-08-25T06:38:56;11.33;;;10.13;;
12267;SDS011;6196;48.398;11.736;2022-08-25T06:41:23;11.47;;;10.27;;
12267;SDS011;6196;48.398;11.736;2022-08-25T06:44:02;12.30;;;10.53;;
12267;SDS011;6196;48.398;11.736;2022-08-25T06:46:30;11.47;;;10.37;;
12267;SDS011;6196;48.398;11.736;2022-08-25T06:49:02;11.50;;;9.67;;
12267;SDS011;6196;48.398;11.736;2022-08-25T06:51:33;13.03;;;10.67;;
12267;SDS011;6196;48.398;11.736;2022-08-25T06:54:03;11.80;;;10.60;;
12267;SDS011;6196;48.398;11.736;2022-08-25T06:56:32;13.10;;;10.97;;
12267;SDS011;6196;48.398;11.736;2022-08-25T06:59:00;11.83;;;10.63;;
12267;SDS011;6196;48.398;11.736;2022-08-25T07:01:29;11.57;;;10.40;;
12267;SDS011;6196;48.398;11.736;2022-08-25T07:03:58;11.10;;;10.00;;
12267;SDS011;6196;48.398;11.736;2022-08-25T07:06:27;11.07;;;9.97;;
12267;SDS011;6196;48.398;11.736;2022-08-25T07:08:57;12.57;;;10.60;;
12267;SDS011;6196;48.398;11.736;2022-08-25T07:11:24;11.53;;;10.43;;
12267;SDS011;6196;48.398;11.736;2022-08-25T07:13:52;12.20;;;10.27;;
12267;SDS011;6196;48.398;11.736;2022-08-25T07:16:19;10.63;;;9.53;;
12267;SDS011;6196;48.398;11.736;2022-08-25T07:18:47;10.53;;;9.50;;
12267;SDS011;6196;48.398;11.736;2022-08-25T07:21:14;11.80;;;10.10;;
12267;SDS011;6196;48.398;11.736;2022-08-25T07:23:42;10.87;;;9.77;;
12267;SDS011;6196;48.398;11.736;2022-08-25T07:26:13;10.97;;;9.77;;
12267;SDS011;6196;48.398;11.736;2022-08-25T07:29:04;11.03;;;10.00;;
12267;SDS011;6196;48.398;11.736;2022-08-25T07:31:36;11.90;;;10.70;;
12267;SDS011;6196;48.398;11.736;2022-08-25T07:34:04;11.90;;;10.60;;
12267;SDS011;6196;48.398;11.736;2022-08-25T07:36:51;13.33;;;10.20;;
12267;SDS011;6196;48.398;11.736;2022-08-25T07:39:20;10.43;;;9.40;;
12267;SDS011;6196;48.398;11.736;2022-08-25T07:41:48;11.43;;;10.20;;
12267;SDS011;6196;48.398;11.736;2022-08-25T07:44:36;10.53;;;9.53;;
12267;SDS011;6196;48.398;11.736;2022-08-25T07:47:03;11.47;;;10.27;;
12267;SDS011;6196;48.398;11.736;2022-08-25T07:49:30;11.03;;;9.93;;
12267;SDS011;6196;48.398;11.736;2022-08-25T07:52:04;11.13;;;10.03;;
12267;SDS011;6196;48.398;11.736;2022-08-25T07:54:34;11.53;;;10.40;;
12267;SDS011;6196;48.398;11.736;2022-08-25T07:57:03;11.43;;;10.20;;
12267;SDS011;6196;48.398;11.736;2022-08-25T07:59:32;12.50;;;9.63;;
12267;SDS011;6196;48.398;11.736;2022-08-25T08:02:08;14.07;;;11.17;;
12267;SDS011;6196;48.398;11.736;2022-08-25T08:04:44;10.90;;;9.80;;
12267;SDS011;6196;48.398;11.736;2022-08-25T08:07:19;14.03;;;10.60;;
12267;SDS011;6196;48.398;11.736;2022-08-25T08:10:09;11.17;;;10.07;;
12267;SDS011;6196;48.398;11.736;2022-08-25T08:12:58;11.80;;;10.70;;
12267;SDS011;6196;48.398;11.736;2022-08-25T08:15:25;12.87;;;10.73;;
12267;SDS011;6196;48.398;11.736;2022-08-25T08:17:55;10.57;;;9.27;;
12267;SDS011;6196;48.398;11.736;2022-08-25T08:20:24;10.87;;;9.77;;
12267;SDS011;6196;48.398;11.736;2022-08-25T08:22:52;10.10;;;9.10;;
12267;SDS011;6196;48.398;11.736;2022-08-25T08:25:19;10.13;;;9.13;;
12267;SDS011;6196;48.398;11.736;2022-08-25T08:27:52;14.00;;;9.10;;
12267;SDS011;6196;48.398;11.736;2022-08-25T08:30:21;8.80;;;7.90;;
12267;SDS011;6196;48.398;11.736;2022-08-25T08:32:52;9.33;;;8.33;;
12267;SDS011;6196;48.398;11.736;2022-08-25T08:35:37;9.80;;;8.80;;
12267;SDS011;6196;48.398;11.736;2022-08-25T08:38:08;9.13;;;8.17;;
12267;SDS011;6196;48.398;11.736;2022-08-25T08:40:59;9.03;;;8.23;;
12267;SDS011;6196;48.398;11.736;2022-08-25T08:44:26;10.07;;;7.90;;
12267;SDS011;6196;48.398;11.736;2022-08-25T08:53:09;10.57;;;9.50;;
12267;SDS011;6196;48.398;11.736;2022-08-25T08:55:49;12.13;;;9.17;;
12267;SDS011;6196;48.398;11.736;2022-08-25T09:01:17;10.73;;;9.30;;
12267;SDS011;6196;48.398;11.736;2022-08-25T09:04:08;10.50;;;9.50;;
12267;SDS011;6196;48.398;11.736;2022-08-25T09:06:45;10.73;;;9.63;;
12267;SDS011;6196;48.398;11.736;2022-08-25T09:09:15;10.70;;;9.10;;
12267;SDS011;6196;48.398;11.736;2022-08-25T09:12:08;9.80;;;8.90;;
12267;SDS011;6196;48.398;11.736;2022-08-25T09:15:06;10.07;;;9.07;;
12267;SDS011;6196;48.398;11.736;2022-08-25T09:21:30;11.17;;;8.43;;
12267;SDS011;6196;48.398;11.736;2022-08-25T09:26:44;11.50;;;8.63;;
12267;SDS011;6196;48.398;11.736;2022-08-25T09:29:27;11.73;;;8.57;;
12267;SDS011;6196;48.398;11.736;2022-08-25T09:32:19;9.90;;;8.60;;
12267;SDS011;6196;48.398;11.736;2022-08-25T09:34:56;9.50;;;8.60;;
12267;SDS011;6196;48.398;11.736;2022-08-25T09:37:24;9.80;;;8.77;;
12267;SDS011;6196;48.398;11.736;2022-08-25T09:39:53;10.57;;;9.47;;
12267;SDS011;6196;48.398;11.736;2022-08-25T09:42:22;10.57;;;8.50;;
12267;SDS011;6196;48.398;11.736;2022-08-25T09:45:31;10.03;;;9.13;;
12267;SDS011;6196;48.398;11.736;2022-08-25T09:48:20;10.87;;;9.67;;
12267;SDS011;6196;48.398;11.736;2022-08-25T09:50:49;11.27;;;9.23;;
12267;SDS011;6196;48.398;11.736;2022-08-25T09:53:23;9.87;;;8.97;;
12267;SDS011;6196;48.398;11.736;2022-08-25T09:56:03;11.80;;;10.63;;
12267;SDS011;6196;48.398;11.736;2022-08-25T09:58:32;13.57;;;10.20;;
12267;SDS011;6196;48.398;11.736;2022-08-25T10:06:23;10.20;;;8.60;;
12267;SDS011;6196;48.398;11.736;2022-08-25T10:08:57;13.40;;;9.67;;
12267;SDS011;6196;48.398;11.736;2022-08-25T10:17:11;10.23;;;9.20;;
12267;SDS011;6196;48.398;11.736;2022-08-25T10:19:42;10.33;;;9.33;;
12267;SDS011;6196;48.398;11.736;2022-08-25T10:24:46;12.80;;;10.50;;
12267;SDS011;6196;48.398;11.736;2022-08-25T10:27:20;10.17;;;9.17;;
12267;SDS011;6196;48.398;11.736;2022-08-25T10:33:14;11.33;;;9.53;;
12267;SDS011;6196;48.398;11.736;2022-08-25T10:44:49;9.52;;;8.60;;
12267;SDS011;6196;48.398;11.736;2022-08-25T10:53:33;10.63;;;7.72;;
12267;SDS011;6196;48.398;11.736;2022-08-25T10:56:22;11.80;;;7.63;;
12267;SDS011;6196;48.398;11.736;2022-08-25T11:04:54;12.20;;;8.38;;
12267;SDS011;6196;48.398;11.736;2022-08-25T11:07:33;10.90;;;8.63;;
12267;SDS011;6196;48.398;11.736;2022-08-25T11:10:25;10.15;;;8.52;;
12267;SDS011;6196;48.398;11.736;2022-08-25T11:13:06;10.15;;;7.78;;
12267;SDS011;6196;48.398;11.736;2022-08-25T11:18:44;12.00;;;8.15;;
12267;SDS011;6196;48.398;11.736;2022-08-25T11:21:37;11.10;;;7.82;;
12267;SDS011;6196;48.398;11.736;2022-08-25T11:27:19;12.15;;;7.85;;
12267;SDS011;6196;48.398;11.736;2022-08-25T11:29:57;12.93;;;8.25;;
12267;SDS011;6196;48.398;11.736;2022-08-25T11:32:33;16.17;;;7.93;;
12267;SDS011;6196;48.398;11.736;2022-08-25T11:35:09;12.27;;;7.85;;
12267;SDS011;6196;48.398;11.736;2022-08-25T11:46:35;16.25;;;8.73;;
12267;SDS011;6196;48.398;11.736;2022-08-25T11:55:10;12.73;;;7.95;;
12267;SDS011;6196;48.398;11.736;2022-08-25T11:57:49;9.48;;;7.40;;
12267;SDS011;6196;48.398;11.736;2022-08-25T12:30:21;15.55;;;9.15;;
12267;SDS011;6196;48.398;11.736;2022-08-25T12:35:58;15.82;;;7.75;;
12267;SDS011;6196;48.398;11.736;2022-08-25T12:38:30;16.77;;;8.30;;
12267;SDS011;6196;48.398;11.736;2022-08-25T12:41:10;15.15;;;9.13;;
12267;SDS011;6196;48.398;11.736;2022-08-25T12:43:44;17.02;;;9.93;;
12267;SDS011;6196;48.398;11.736;2022-08-25T12:54:00;13.00;;;8.95;;
12267;SDS011;6196;48.398;11.736;2022-08-25T12:56:58;16.42;;;9.15;;
12267;SDS011;6196;48.398;11.736;2022-08-25T13:02:20;14.98;;;8.32;;
12267;SDS011;6196;48.398;11.736;2022-08-25T13:05:33;17.83;;;8.85;;
12267;SDS011;6196;48.398;11.736;2022-08-25T13:11:14;21.13;;;9.43;;
12267;SDS011;6196;48.398;11.736;2022-08-25T13:13:56;14.20;;;8.23;;
12267;SDS011;6196;48.398;11.736;2022-08-25T13:16:35;15.23;;;8.70;;
12267;SDS011;6196;48.398;11.736;2022-08-25T13:19:03;16.17;;;8.32;;
12267;SDS011;6196;48.398;11.736;2022-08-25T13:21:33;15.60;;;8.50;;
12267;SDS011;6196;48.398;11.736;2022-08-25T13:24:05;16.13;;;8.85;;
12267;SDS011;6196;48.398;11.736;2022-08-25T13:26:54;14.15;;;7.50;;
12267;SDS011;6196;48.398;11.736;2022-08-25T13:29:35;14.77;;;8.48;;
12267;SDS011;6196;48.398;11.736;2022-08-25T13:32:24;17.08;;;7.68;;
12267;SDS011;6196;48.398;11.736;2022-08-25T13:35:34;14.73;;;7.63;;
12267;SDS011;6196;48.398;11.736;2022-08-25T13:38:11;13.93;;;7.97;;
12267;SDS011;6196;48.398;11.736;2022-08-25T13:40:43;19.52;;;8.65;;
12267;SDS011;6196;48.398;11.736;2022-08-25T13:43:11;15.73;;;7.68;;
12267;SDS011;6196;48.398;11.736;2022-08-25T13:45:44;15.75;;;7.70;;
12267;SDS011;6196;48.398;11.736;2022-08-25T13:48:30;18.40;;;8.35;;
12267;SDS011;6196;48.398;11.736;2022-08-25T13:51:22;16.35;;;8.13;;
12267;SDS011;6196;48.398;11.736;2022-08-25T13:54:00;14.40;;;8.35;;
12267;SDS011;6196;48.398;11.736;2022-08-25T13:56:35;18.35;;;8.27;;
12267;SDS011;6196;48.398;11.736;2022-08-25T14:01:56;19.38;;;8.07;;
12267;SDS011;6196;48.398;11.736;2022-08-25T14:09:47;17.10;;;8.27;;
12267;SDS011;6196;48.398;11.736;2022-08-25T14:12:41;14.27;;;8.43;;
12267;SDS011;6196;48.398;11.736;2022-08-25T14:15:25;16.35;;;7.72;;
12267;SDS011;6196;48.398;11.736;2022-08-25T14:20:58;15.20;;;7.65;;
12267;SDS011;6196;48.398;11.736;2022-08-25T14:23:29;14.68;;;7.85;;
12267;SDS011;6196;48.398;11.736;2022-08-25T14:25:56;17.13;;;8.18;;
12267;SDS011;6196;48.398;11.736;2022-08-25T14:28:25;20.08;;;7.95;;
12267;SDS011;6196;48.398;11.736;2022-08-25T14:30:55;16.80;;;8.20;;
12267;SDS011;6196;48.398;11.736;2022-08-25T14:33:35;13.60;;;7.32;;
12267;SDS011;6196;48.398;11.736;2022-08-25T14:36:05;14.40;;;7.78;;
12267;SDS011;6196;48.398;11.736;2022-08-25T14:38:33;17.98;;;8.13;;
12267;SDS011;6196;48.398;11.736;2022-08-25T14:41:04;21.73;;;7.35;;
12267;SDS011;6196;48.398;11.736;2022-08-25T14:43:36;18.17;;;7.72;;
12267;SDS011;6196;48.398;11.736;2022-08-25T14:46:09;14.82;;;7.15;;
12267;SDS011;6196;48.398;11.736;2022-08-25T14:48:49;15.98;;;8.23;;
12267;SDS011;6196;48.398;11.736;2022-08-25T14:51:21;19.58;;;8.20;;
12267;SDS011;6196;48.398;11.736;2022-08-25T14:53:50;14.63;;;6.97;;
12267;SDS011;6196;48.398;11.736;2022-08-25T14:56:19;17.33;;;7.50;;
12267;SDS011;6196;48.398;11.736;2022-08-25T14:58:47;13.15;;;8.45;;
12267;SDS011;6196;48.398;11.736;2022-08-25T15:01:20;17.48;;;8.45;;
12267;SDS011;6196;48.398;11.736;2022-08-25T15:03:56;18.40;;;7.93;;
12267;SDS011;6196;48.398;11.736;2022-08-25T15:06:37;18.45;;;7.97;;
12267;SDS011;6196;48.398;11.736;2022-08-25T15:09:10;14.35;;;6.93;;
12267;SDS011;6196;48.398;11.736;2022-08-25T15:11:43;15.60;;;7.20;;
12267;SDS011;6196;48.398;11.736;2022-08-25T15:14:16;15.05;;;7.13;;
12267;SDS011;6196;48.398;11.736;2022-08-25T15:16:58;18.58;;;7.30;;
12267;SDS011;6196;48.398;11.736;2022-08-25T15:19:27;21.02;;;6.75;;
12267;SDS011;6196;48.398;11.736;2022-08-25T15:21:54;16.58;;;7.72;;
12267;SDS011;6196;48.398;11.736;2022-08-25T15:24:25;14.07;;;6.80;;
12267;SDS011;6196;48.398;11.736;2022-08-25T15:26:54;13.05;;;7.50;;
12267;SDS011;6196;48.398;11.736;2022-08-25T15:29:27;18.77;;;7.57;;
12267;SDS011;6196;48.398;11.736;2022-08-25T15:31:57;14.55;;;7.15;;
12267;SDS011;6196;48.398;11.736;2022-08-25T15:34:25;14.65;;;6.93;;
12267;SDS011;6196;48.398;11.736;2022-08-25T15:36:53;16.77;;;7.20;;
12267;SDS011;6196;48.398;11.736;2022-08-25T15:39:21;13.23;;;7.72;;
12267;SDS011;6196;48.398;11.736;2022-08-25T15:41:48;14.68;;;7.50;;
12267;SDS011;6196;48.398;11.736;2022-08-25T15:44:17;15.35;;;7.07;;
12267;SDS011;6196;48.398;11.736;2022-08-25T15:46:45;14.20;;;7.05;;
12267;SDS011;6196;48.398;11.736;2022-08-25T15:49:15;16.33;;;7.30;;
12267;SDS011;6196;48.398;11.736;2022-08-25T15:51:48;16.77;;;7.72;;
12267;SDS011;6196;48.398;11.736;2022-08-25T15:54:17;17.05;;;8.52;;
12267;SDS011;6196;48.398;11.736;2022-08-25T15:56:45;16.25;;;7.25;;
12267;SDS011;6196;48.398;11.736;2022-08-25T15:59:13;20.27;;;7.82;;
12267;SDS011;6196;48.398;11.736;2022-08-25T16:01:40;16.02;;;7.65;;
12267;SDS011;6196;48.398;11.736;2022-08-25T16:04:09;11.98;;;7.45;;
12267;SDS011;6196;48.398;11.736;2022-08-25T16:06:37;16.52;;;7.40;;
12267;SDS011;6196;48.398;11.736;2022-08-25T16:09:05;16.17;;;7.97;;
12267;SDS011;6196;48.398;11.736;2022-08-25T16:11:33;15.32;;;7.40;;
12267;SDS011;6196;48.398;11.736;2022-08-25T16:14:04;17.42;;;8.18;;
12267;SDS011;6196;48.398;11.736;2022-08-25T16:16:31;17.92;;;7.38;;
12267;SDS011;6196;48.398;11.736;2022-08-25T16:18:59;17.63;;;7.55;;
12267;SDS011;6196;48.398;11.736;2022-08-25T16:21:27;15.10;;;8.30;;
12267;SDS011;6196;48.398;11.736;2022-08-25T16:24:01;13.02;;;7.45;;
12267;SDS011;6196;48.398;11.736;2022-08-25T16:26:33;14.70;;;8.27;;
12267;SDS011;6196;48.398;11.736;2022-08-25T16:29:04;12.90;;;7.18;;
12267;SDS011;6196;48.398;11.736;2022-08-25T16:31:32;11.43;;;7.53;;
12267;SDS011;6196;48.398;11.736;2022-08-25T16:33:59;12.68;;;6.85;;
12267;SDS011;6196;48.398;11.736;2022-08-25T16:36:26;12.55;;;6.97;;
12267;SDS011;6196;48.398;11.736;2022-08-25T16:38:54;15.82;;;7.43;;
12267;SDS011;6196;48.398;11.736;2022-08-25T16:41:24;14.52;;;7.53;;
12267;SDS011;6196;48.398;11.736;2022-08-25T16:44:01;15.88;;;8.07;;
12267;SDS011;6196;48.398;11.736;2022-08-25T16:46:36;12.52;;;7.45;;
12267;SDS011;6196;48.398;11.736;2022-08-25T16:49:06;13.52;;;7.57;;
12267;SDS011;6196;48.398;11.736;2022-08-25T16:51:35;14.07;;;8.15;;
12267;SDS011;6196;48.398;11.736;2022-08-25T16:54:04;17.00;;;7.82;;
12267;SDS011;6196;48.398;11.736;2022-08-25T16:56:51;15.20;;;8.27;;
12267;SDS011;6196;48.398;11.736;2022-08-25T16:59:20;14.65;;;8.15;;
12267;SDS011;6196;48.398;11.736;2022-08-25T17:01:49;13.32;;;7.95;;
12267;SDS011;6196;48.398;11.736;2022-08-25T17:04:17;13.93;;;7.53;;
12267;SDS011;6196;48.398;11.736;2022-08-25T17:06:45;12.38;;;7.78;;
12267;SDS011;6196;48.398;11.736;2022-08-25T17:09:16;11.10;;;7.25;;
12267;SDS011;6196;48.398;11.736;2022-08-25T17:11:49;15.00;;;7.90;;
12267;SDS011;6196;48.398;11.736;2022-08-25T17:14:19;11.27;;;7.70;;
12267;SDS011;6196;48.398;11.736;2022-08-25T17:16:46;11.95;;;7.90;;
12267;SDS011;6196;48.398;11.736;2022-08-25T17:19:16;15.63;;;7.97;;
12267;SDS011;6196;48.398;11.736;2022-08-25T17:21:43;12.23;;;7.33;;
12267;SDS011;6196;48.398;11.736;2022-08-25T17:24:15;13.80;;;8.20;;